<?xml version="1.0" encoding="UTF-8" standalone="no" ?>
<gpx xmlns="http://www.topografix.com/GPX/1/1" xmlns:xsi="http://www.w3.org/2001/XMLSchema-instance" xsi:schemaLocation="http://www.topografix.com/GPX/1/1 http://www.topografix.com/GPX/1/1/gpx.xsd" version="1.1" creator="VisuGPX - https://www.visugpx.com">
  <metadata>
    <name>Tour des Combeynods avec nuitée en refuge</name>
    <desc><![CDATA[Rando sur 2 jours pour profiter du lac, du glacier et des sources]]></desc>
  </metadata>
  <trk>
    <name><![CDATA[8922496-Combeynods J1]]></name>
    <extensions>
      <line xmlns="http://www.topografix.com/GPX/gpx_style/0/2">
        <color>0000FF</color>
        <width>4</width>
      </line>
    </extensions>
    <trkseg>
      <trkpt lat="45.03449" lon="6.40506">
        <ele>2055</ele>
        <time>2021-08-07T13:23:06Z</time>
      </trkpt>
      <trkpt lat="45.03576" lon="6.40551">
        <ele>2058</ele>
        <time>2021-08-07T13:24:51Z</time>
      </trkpt>
      <trkpt lat="45.03625" lon="6.40657">
        <ele>2050</ele>
        <time>2021-08-07T13:26:02Z</time>
      </trkpt>
      <trkpt lat="45.0373" lon="6.40639">
        <ele>2032</ele>
        <time>2021-08-07T13:27:27Z</time>
      </trkpt>
      <trkpt lat="45.03651" lon="6.40858">
        <ele>2016</ele>
        <time>2021-08-07T13:29:46Z</time>
      </trkpt>
      <trkpt lat="45.03569" lon="6.4107">
        <ele>1999</ele>
        <time>2021-08-07T13:32:03Z</time>
      </trkpt>
      <trkpt lat="45.03679" lon="6.4114">
        <ele>1977</ele>
        <time>2021-08-07T13:33:40Z</time>
      </trkpt>
      <trkpt lat="45.03765" lon="6.41085">
        <ele>1982</ele>
        <time>2021-08-07T13:34:55Z</time>
      </trkpt>
      <trkpt lat="45.03876" lon="6.41316">
        <ele>1948</ele>
        <time>2021-08-07T13:37:33Z</time>
      </trkpt>
      <trkpt lat="45.03979" lon="6.41516">
        <ele>1915</ele>
        <time>2021-08-07T13:39:53Z</time>
      </trkpt>
      <trkpt lat="45.03947" lon="6.41537">
        <ele>1902</ele>
        <time>2021-08-07T13:40:21Z</time>
      </trkpt>
      <trkpt lat="45.0399" lon="6.41622">
        <ele>1898</ele>
        <time>2021-08-07T13:41:21Z</time>
      </trkpt>
      <trkpt lat="45.03934" lon="6.41692">
        <ele>1886</ele>
        <time>2021-08-07T13:42:20Z</time>
      </trkpt>
      <trkpt lat="45.03833" lon="6.41995">
        <ele>1858</ele>
        <time>2021-08-07T13:45:30Z</time>
      </trkpt>
      <trkpt lat="45.03801" lon="6.42244">
        <ele>1845</ele>
        <time>2021-08-07T13:47:53Z</time>
      </trkpt>
      <trkpt lat="45.03829" lon="6.4236">
        <ele>1837</ele>
        <time>2021-08-07T13:49:03Z</time>
      </trkpt>
      <trkpt lat="45.0372" lon="6.42769">
        <ele>1829</ele>
        <time>2021-08-07T13:53:10Z</time>
      </trkpt>
      <trkpt lat="45.03529" lon="6.43228">
        <ele>1818</ele>
        <time>2021-08-07T13:58:11Z</time>
      </trkpt>
      <trkpt lat="45.03481" lon="6.43404">
        <ele>1815</ele>
        <time>2021-08-07T13:59:58Z</time>
      </trkpt>
      <trkpt lat="45.03449" lon="6.43661">
        <ele>1816</ele>
        <time>2021-08-07T14:02:26Z</time>
      </trkpt>
      <trkpt lat="45.03376" lon="6.43683">
        <ele>1805</ele>
        <time>2021-08-07T14:03:25Z</time>
      </trkpt>
      <trkpt lat="45.03284" lon="6.43753">
        <ele>1799</ele>
        <time>2021-08-07T14:04:49Z</time>
      </trkpt>
      <trkpt lat="45.03201" lon="6.43819">
        <ele>1795</ele>
        <time>2021-08-07T14:06:05Z</time>
      </trkpt>
      <trkpt lat="45.03171" lon="6.43907">
        <ele>1798</ele>
        <time>2021-08-07T14:07:01Z</time>
      </trkpt>
      <trkpt lat="45.03126" lon="6.43947">
        <ele>1801</ele>
        <time>2021-08-07T14:07:43Z</time>
      </trkpt>
      <trkpt lat="45.0311" lon="6.44004">
        <ele>1802</ele>
        <time>2021-08-07T14:08:18Z</time>
      </trkpt>
      <trkpt lat="45.03038" lon="6.44044">
        <ele>1796</ele>
        <time>2021-08-07T14:09:20Z</time>
      </trkpt>
      <trkpt lat="45.02995" lon="6.44189">
        <ele>1787</ele>
        <time>2021-08-07T14:10:49Z</time>
      </trkpt>
      <trkpt lat="45.0284" lon="6.44268">
        <ele>1771</ele>
        <time>2021-08-07T14:13:01Z</time>
      </trkpt>
      <trkpt lat="45.02757" lon="6.44365">
        <ele>1769</ele>
        <time>2021-08-07T14:14:27Z</time>
      </trkpt>
      <trkpt lat="45.02682" lon="6.44563">
        <ele>1763</ele>
        <time>2021-08-07T14:16:34Z</time>
      </trkpt>
      <trkpt lat="45.02585" lon="6.44693">
        <ele>1755</ele>
        <time>2021-08-07T14:18:21Z</time>
      </trkpt>
      <trkpt lat="45.02454" lon="6.44854">
        <ele>1740</ele>
        <time>2021-08-07T14:20:40Z</time>
      </trkpt>
      <trkpt lat="45.02422" lon="6.44918">
        <ele>1737</ele>
        <time>2021-08-07T14:21:24Z</time>
      </trkpt>
      <trkpt lat="45.02353" lon="6.45173">
        <ele>1722</ele>
        <time>2021-08-07T14:23:59Z</time>
      </trkpt>
      <trkpt lat="45.02291" lon="6.45364">
        <ele>1713</ele>
        <time>2021-08-07T14:25:58Z</time>
      </trkpt>
      <trkpt lat="45.02188" lon="6.45422">
        <ele>1701</ele>
        <time>2021-08-07T14:27:26Z</time>
      </trkpt>
      <trkpt lat="45.02094" lon="6.45476">
        <ele>1700</ele>
        <time>2021-08-07T14:28:48Z</time>
      </trkpt>
      <trkpt lat="45.01927" lon="6.45655">
        <ele>1695</ele>
        <time>2021-08-07T14:31:35Z</time>
      </trkpt>
      <trkpt lat="45.01841" lon="6.45761">
        <ele>1692</ele>
        <time>2021-08-07T14:33:07Z</time>
      </trkpt>
      <trkpt lat="45.01779" lon="6.45871">
        <ele>1687</ele>
        <time>2021-08-07T14:34:26Z</time>
      </trkpt>
      <trkpt lat="45.01785" lon="6.4595">
        <ele>1687</ele>
        <time>2021-08-07T14:35:11Z</time>
      </trkpt>
      <trkpt lat="45.01766" lon="6.46035">
        <ele>1682</ele>
        <time>2021-08-07T14:36:02Z</time>
      </trkpt>
      <trkpt lat="45.01691" lon="6.46116">
        <ele>1674</ele>
        <time>2021-08-07T14:37:17Z</time>
      </trkpt>
      <trkpt lat="45.01558" lon="6.46174">
        <ele>1664</ele>
        <time>2021-08-07T14:39:09Z</time>
      </trkpt>
      <trkpt lat="45.01429" lon="6.46341">
        <ele>1655</ele>
        <time>2021-08-07T14:41:29Z</time>
      </trkpt>
      <trkpt lat="45.0136" lon="6.46383">
        <ele>1649</ele>
        <time>2021-08-07T14:42:29Z</time>
      </trkpt>
      <trkpt lat="45.0121" lon="6.46541">
        <ele>1639</ele>
        <time>2021-08-07T14:44:59Z</time>
      </trkpt>
      <trkpt lat="45.01141" lon="6.46587">
        <ele>1635</ele>
        <time>2021-08-07T14:46:00Z</time>
      </trkpt>
      <trkpt lat="45.01103" lon="6.46584">
        <ele>1633</ele>
        <time>2021-08-07T14:46:30Z</time>
      </trkpt>
      <trkpt lat="45.01041" lon="6.46669">
        <ele>1630</ele>
        <time>2021-08-07T14:47:39Z</time>
      </trkpt>
      <trkpt lat="45.00981" lon="6.46711">
        <ele>1630</ele>
        <time>2021-08-07T14:48:33Z</time>
      </trkpt>
      <trkpt lat="45.00908" lon="6.4662">
        <ele>1631</ele>
        <time>2021-08-07T14:49:51Z</time>
      </trkpt>
      <trkpt lat="45.00785" lon="6.4662">
        <ele>1630</ele>
        <time>2021-08-07T14:51:29Z</time>
      </trkpt>
      <trkpt lat="45.00736" lon="6.46572">
        <ele>1633</ele>
        <time>2021-08-07T14:52:17Z</time>
      </trkpt>
      <trkpt lat="45.00691" lon="6.46575">
        <ele>1634</ele>
        <time>2021-08-07T14:52:53Z</time>
      </trkpt>
      <trkpt lat="45.00652" lon="6.46602">
        <ele>1632</ele>
        <time>2021-08-07T14:53:28Z</time>
      </trkpt>
      <trkpt lat="45.00566" lon="6.46596">
        <ele>1636</ele>
        <time>2021-08-07T14:54:37Z</time>
      </trkpt>
      <trkpt lat="45.00504" lon="6.46641">
        <ele>1631</ele>
        <time>2021-08-07T14:55:33Z</time>
      </trkpt>
      <trkpt lat="45.00408" lon="6.46869">
        <ele>1605</ele>
        <time>2021-08-07T14:58:03Z</time>
      </trkpt>
      <trkpt lat="45.00324" lon="6.4693">
        <ele>1607</ele>
        <time>2021-08-07T14:59:19Z</time>
      </trkpt>
      <trkpt lat="45.00247" lon="6.46954">
        <ele>1608</ele>
        <time>2021-08-07T15:00:22Z</time>
      </trkpt>
      <trkpt lat="45.00185" lon="6.47015">
        <ele>1598</ele>
        <time>2021-08-07T15:01:22Z</time>
      </trkpt>
      <trkpt lat="45.0009" lon="6.47094">
        <ele>1593</ele>
        <time>2021-08-07T15:02:50Z</time>
      </trkpt>
      <trkpt lat="45.00002" lon="6.47239">
        <ele>1584</ele>
        <time>2021-08-07T15:04:39Z</time>
      </trkpt>
      <trkpt lat="44.99976" lon="6.47388">
        <ele>1575</ele>
        <time>2021-08-07T15:06:05Z</time>
      </trkpt>
      <trkpt lat="44.99972" lon="6.47433">
        <ele>1572</ele>
        <time>2021-08-07T15:06:31Z</time>
      </trkpt>
      <trkpt lat="44.99841" lon="6.4757">
        <ele>1568</ele>
        <time>2021-08-07T15:08:42Z</time>
      </trkpt>
      <trkpt lat="44.99777" lon="6.47555">
        <ele>1573</ele>
        <time>2021-08-07T15:09:34Z</time>
      </trkpt>
      <trkpt lat="44.99663" lon="6.47612">
        <ele>1563</ele>
        <time>2021-08-07T15:11:10Z</time>
      </trkpt>
      <trkpt lat="44.99573" lon="6.47588">
        <ele>1564</ele>
        <time>2021-08-07T15:12:24Z</time>
      </trkpt>
      <trkpt lat="44.99436" lon="6.47658">
        <ele>1556</ele>
        <time>2021-08-07T15:14:20Z</time>
      </trkpt>
      <trkpt lat="44.99363" lon="6.47643">
        <ele>1559</ele>
        <time>2021-08-07T15:15:19Z</time>
      </trkpt>
      <trkpt lat="44.99309" lon="6.47704">
        <ele>1550</ele>
        <time>2021-08-07T15:16:15Z</time>
      </trkpt>
      <trkpt lat="44.99238" lon="6.47734">
        <ele>1548</ele>
        <time>2021-08-07T15:17:14Z</time>
      </trkpt>
      <trkpt lat="44.99189" lon="6.47722">
        <ele>1549</ele>
        <time>2021-08-07T15:17:54Z</time>
      </trkpt>
      <trkpt lat="44.99137" lon="6.47779">
        <ele>1542</ele>
        <time>2021-08-07T15:18:47Z</time>
      </trkpt>
      <trkpt lat="44.99021" lon="6.47846">
        <ele>1537</ele>
        <time>2021-08-07T15:20:27Z</time>
      </trkpt>
      <trkpt lat="44.99006" lon="6.47925">
        <ele>1533</ele>
        <time>2021-08-07T15:21:13Z</time>
      </trkpt>
      <trkpt lat="44.98955" lon="6.47961">
        <ele>1530</ele>
        <time>2021-08-07T15:21:59Z</time>
      </trkpt>
      <trkpt lat="44.98809" lon="6.47995">
        <ele>1525</ele>
        <time>2021-08-07T15:23:57Z</time>
      </trkpt>
      <trkpt lat="44.9874" lon="6.48062">
        <ele>1522</ele>
        <time>2021-08-07T15:25:04Z</time>
      </trkpt>
      <trkpt lat="44.98717" lon="6.48104">
        <ele>1521</ele>
        <time>2021-08-07T15:25:34Z</time>
      </trkpt>
      <trkpt lat="44.98665" lon="6.48086">
        <ele>1519</ele>
        <time>2021-08-07T15:26:17Z</time>
      </trkpt>
      <trkpt lat="44.98611" lon="6.4788">
        <ele>1531</ele>
        <time>2021-08-07T15:28:22Z</time>
      </trkpt>
      <trkpt lat="44.98549" lon="6.47795">
        <ele>1537</ele>
        <time>2021-08-07T15:29:31Z</time>
      </trkpt>
      <trkpt lat="44.98526" lon="6.47637">
        <ele>1545</ele>
        <time>2021-08-07T15:31:02Z</time>
      </trkpt>
      <trkpt lat="44.98463" lon="6.47488">
        <ele>1562</ele>
        <time>2021-08-07T15:32:41Z</time>
      </trkpt>
      <trkpt lat="44.98423" lon="6.47273">
        <ele>1569</ele>
        <time>2021-08-07T15:34:46Z</time>
      </trkpt>
      <trkpt lat="44.98369" lon="6.47151">
        <ele>1581</ele>
        <time>2021-08-07T15:36:08Z</time>
      </trkpt>
      <trkpt lat="44.98345" lon="6.47124">
        <ele>1584</ele>
        <time>2021-08-07T15:36:32Z</time>
      </trkpt>
      <trkpt lat="44.98358" lon="6.4706">
        <ele>1587</ele>
        <time>2021-08-07T15:37:10Z</time>
      </trkpt>
      <trkpt lat="44.98313" lon="6.471">
        <ele>1595</ele>
        <time>2021-08-07T15:37:53Z</time>
      </trkpt>
      <trkpt lat="44.9829" lon="6.47072">
        <ele>1604</ele>
        <time>2021-08-07T15:38:17Z</time>
      </trkpt>
      <trkpt lat="44.98339" lon="6.47024">
        <ele>1591</ele>
        <time>2021-08-07T15:39:05Z</time>
      </trkpt>
      <trkpt lat="44.98259" lon="6.46963">
        <ele>1607</ele>
        <time>2021-08-07T15:40:18Z</time>
      </trkpt>
      <trkpt lat="44.9824" lon="6.46908">
        <ele>1612</ele>
        <time>2021-08-07T15:40:52Z</time>
      </trkpt>
      <trkpt lat="44.98202" lon="6.46919">
        <ele>1620</ele>
        <time>2021-08-07T15:41:23Z</time>
      </trkpt>
      <trkpt lat="44.98181" lon="6.46898">
        <ele>1624</ele>
        <time>2021-08-07T15:41:44Z</time>
      </trkpt>
      <trkpt lat="44.98172" lon="6.46864">
        <ele>1623</ele>
        <time>2021-08-07T15:42:04Z</time>
      </trkpt>
      <trkpt lat="44.9817" lon="6.46794">
        <ele>1624</ele>
        <time>2021-08-07T15:42:44Z</time>
      </trkpt>
      <trkpt lat="44.98158" lon="6.46789">
        <ele>1627</ele>
        <time>2021-08-07T15:42:54Z</time>
      </trkpt>
      <trkpt lat="44.98133" lon="6.46822">
        <ele>1635</ele>
        <time>2021-08-07T15:43:22Z</time>
      </trkpt>
      <trkpt lat="44.98117" lon="6.46822">
        <ele>1641</ele>
        <time>2021-08-07T15:43:34Z</time>
      </trkpt>
      <trkpt lat="44.9812" lon="6.46762">
        <ele>1637</ele>
        <time>2021-08-07T15:44:08Z</time>
      </trkpt>
      <trkpt lat="44.98072" lon="6.46686">
        <ele>1649</ele>
        <time>2021-08-07T15:45:06Z</time>
      </trkpt>
      <trkpt lat="44.9802" lon="6.4662">
        <ele>1669</ele>
        <time>2021-08-07T15:46:02Z</time>
      </trkpt>
      <trkpt lat="44.98001" lon="6.46582">
        <ele>1677</ele>
        <time>2021-08-07T15:46:28Z</time>
      </trkpt>
      <trkpt lat="44.97984" lon="6.46521">
        <ele>1679</ele>
        <time>2021-08-07T15:47:06Z</time>
      </trkpt>
      <trkpt lat="44.97941" lon="6.46472">
        <ele>1687</ele>
        <time>2021-08-07T15:47:50Z</time>
      </trkpt>
      <trkpt lat="44.97912" lon="6.46421">
        <ele>1688</ele>
        <time>2021-08-07T15:48:27Z</time>
      </trkpt>
      <trkpt lat="44.97895" lon="6.46371">
        <ele>1692</ele>
        <time>2021-08-07T15:48:58Z</time>
      </trkpt>
      <trkpt lat="44.9787" lon="6.46367">
        <ele>1697</ele>
        <time>2021-08-07T15:49:18Z</time>
      </trkpt>
      <trkpt lat="44.97867" lon="6.46306">
        <ele>1698</ele>
        <time>2021-08-07T15:49:53Z</time>
      </trkpt>
      <trkpt lat="44.97808" lon="6.46286">
        <ele>1708</ele>
        <time>2021-08-07T15:50:42Z</time>
      </trkpt>
      <trkpt lat="44.97721" lon="6.4616">
        <ele>1721</ele>
        <time>2021-08-07T15:52:21Z</time>
      </trkpt>
      <trkpt lat="44.97702" lon="6.46044">
        <ele>1731</ele>
        <time>2021-08-07T15:53:29Z</time>
      </trkpt>
      <trkpt lat="44.97678" lon="6.45958">
        <ele>1741</ele>
        <time>2021-08-07T15:54:21Z</time>
      </trkpt>
      <trkpt lat="44.97663" lon="6.45842">
        <ele>1761</ele>
        <time>2021-08-07T15:55:28Z</time>
      </trkpt>
      <trkpt lat="44.97677" lon="6.45745">
        <ele>1778</ele>
        <time>2021-08-07T15:56:24Z</time>
      </trkpt>
      <trkpt lat="44.9765" lon="6.45611">
        <ele>1803</ele>
        <time>2021-08-07T15:57:43Z</time>
      </trkpt>
      <trkpt lat="44.97575" lon="6.45425">
        <ele>1839</ele>
        <time>2021-08-07T15:59:44Z</time>
      </trkpt>
      <trkpt lat="44.97564" lon="6.45317">
        <ele>1860</ele>
        <time>2021-08-07T16:00:46Z</time>
      </trkpt>
      <trkpt lat="44.97591" lon="6.45258">
        <ele>1868</ele>
        <time>2021-08-07T16:01:26Z</time>
      </trkpt>
      <trkpt lat="44.97548" lon="6.45164">
        <ele>1889</ele>
        <time>2021-08-07T16:02:29Z</time>
      </trkpt>
      <trkpt lat="44.97587" lon="6.45009">
        <ele>1899</ele>
        <time>2021-08-07T16:04:02Z</time>
      </trkpt>
      <trkpt lat="44.97604" lon="6.44866">
        <ele>1911</ele>
        <time>2021-08-07T16:05:24Z</time>
      </trkpt>
      <trkpt lat="44.97608" lon="6.44783">
        <ele>1915</ele>
        <time>2021-08-07T16:06:12Z</time>
      </trkpt>
      <trkpt lat="44.97602" lon="6.44725">
        <ele>1921</ele>
        <time>2021-08-07T16:06:45Z</time>
      </trkpt>
      <trkpt lat="44.97598" lon="6.44678">
        <ele>1929</ele>
        <time>2021-08-07T16:07:12Z</time>
      </trkpt>
      <trkpt lat="44.9761" lon="6.44644">
        <ele>1939</ele>
        <time>2021-08-07T16:07:33Z</time>
      </trkpt>
      <trkpt lat="44.97599" lon="6.44632">
        <ele>1947</ele>
        <time>2021-08-07T16:07:44Z</time>
      </trkpt>
      <trkpt lat="44.97742" lon="6.44545">
        <ele>1968</ele>
        <time>2021-08-07T16:09:49Z</time>
      </trkpt>
      <trkpt lat="44.97796" lon="6.44433">
        <ele>2010</ele>
        <time>2021-08-07T16:11:06Z</time>
      </trkpt>
      <trkpt lat="44.97834" lon="6.44388">
        <ele>2026</ele>
        <time>2021-08-07T16:11:45Z</time>
      </trkpt>
      <trkpt lat="44.97867" lon="6.44325">
        <ele>2056</ele>
        <time>2021-08-07T16:12:30Z</time>
      </trkpt>
      <trkpt lat="44.97884" lon="6.44254">
        <ele>2074</ele>
        <time>2021-08-07T16:13:12Z</time>
      </trkpt>
      <trkpt lat="44.979" lon="6.44224">
        <ele>2084</ele>
        <time>2021-08-07T16:13:34Z</time>
      </trkpt>
      <trkpt lat="44.97923" lon="6.44249">
        <ele>2093</ele>
        <time>2021-08-07T16:13:57Z</time>
      </trkpt>
      <trkpt lat="44.97926" lon="6.44171">
        <ele>2097</ele>
        <time>2021-08-07T16:14:41Z</time>
      </trkpt>
      <trkpt lat="44.98005" lon="6.43917">
        <ele>2146</ele>
        <time>2021-08-07T16:17:18Z</time>
      </trkpt>
      <trkpt lat="44.98043" lon="6.43868">
        <ele>2163</ele>
        <time>2021-08-07T16:17:59Z</time>
      </trkpt>
      <trkpt lat="44.98061" lon="6.43758">
        <ele>2163</ele>
        <time>2021-08-07T16:19:03Z</time>
      </trkpt>
      <trkpt lat="44.98047" lon="6.4369">
        <ele>2167</ele>
        <time>2021-08-07T16:19:43Z</time>
      </trkpt>
      <trkpt lat="44.98061" lon="6.43628">
        <ele>2171</ele>
        <time>2021-08-07T16:20:20Z</time>
      </trkpt>
      <trkpt lat="44.98079" lon="6.4352">
        <ele>2168</ele>
        <time>2021-08-07T16:21:23Z</time>
      </trkpt>
      <trkpt lat="44.98075" lon="6.43439">
        <ele>2169</ele>
        <time>2021-08-07T16:22:09Z</time>
      </trkpt>
      <trkpt lat="44.98127" lon="6.43089">
        <ele>2199</ele>
        <time>2021-08-07T16:25:32Z</time>
      </trkpt>
      <trkpt lat="44.98173" lon="6.42869">
        <ele>2216</ele>
        <time>2021-08-07T16:27:42Z</time>
      </trkpt>
      <trkpt lat="44.98235" lon="6.42679">
        <ele>2235</ele>
        <time>2021-08-07T16:29:40Z</time>
      </trkpt>
      <trkpt lat="44.98236" lon="6.42461">
        <ele>2241</ele>
        <time>2021-08-07T16:31:43Z</time>
      </trkpt>
      <trkpt lat="44.98235" lon="6.42367">
        <ele>2247</ele>
        <time>2021-08-07T16:32:37Z</time>
      </trkpt>
      <trkpt lat="44.98209" lon="6.42297">
        <ele>2251</ele>
        <time>2021-08-07T16:33:22Z</time>
      </trkpt>
      <trkpt lat="44.98221" lon="6.42215">
        <ele>2259</ele>
        <time>2021-08-07T16:34:09Z</time>
      </trkpt>
      <trkpt lat="44.98158" lon="6.42113">
        <ele>2264</ele>
        <time>2021-08-07T16:35:26Z</time>
      </trkpt>
      <trkpt lat="44.98116" lon="6.42098">
        <ele>2261</ele>
        <time>2021-08-07T16:36:00Z</time>
      </trkpt>
      <trkpt lat="44.9805" lon="6.419">
        <ele>2287</ele>
        <time>2021-08-07T16:38:04Z</time>
      </trkpt>
      <trkpt lat="44.98015" lon="6.41858">
        <ele>2291</ele>
        <time>2021-08-07T16:38:41Z</time>
      </trkpt>
      <trkpt lat="44.97998" lon="6.41793">
        <ele>2300</ele>
        <time>2021-08-07T16:39:20Z</time>
      </trkpt>
      <trkpt lat="44.98" lon="6.41737">
        <ele>2308</ele>
        <time>2021-08-07T16:39:52Z</time>
      </trkpt>
      <trkpt lat="44.97938" lon="6.4156">
        <ele>2333</ele>
        <time>2021-08-07T16:41:44Z</time>
      </trkpt>
      <trkpt lat="44.97913" lon="6.41438">
        <ele>2345</ele>
        <time>2021-08-07T16:42:56Z</time>
      </trkpt>
      <trkpt lat="44.9784" lon="6.41176">
        <ele>2356</ele>
        <time>2021-08-07T16:45:35Z</time>
      </trkpt>
      <trkpt lat="44.97808" lon="6.41086">
        <ele>2356</ele>
        <time>2021-08-07T16:46:32Z</time>
      </trkpt>
      <trkpt lat="44.9778" lon="6.41035">
        <ele>2354</ele>
        <time>2021-08-07T16:47:09Z</time>
      </trkpt>
      <trkpt lat="44.97797" lon="6.40969">
        <ele>2357</ele>
        <time>2021-08-07T16:47:49Z</time>
      </trkpt>
      <trkpt lat="44.9779" lon="6.4092">
        <ele>2355</ele>
        <time>2021-08-07T16:48:17Z</time>
      </trkpt>
      <trkpt lat="44.97716" lon="6.40942">
        <ele>2348</ele>
        <time>2021-08-07T16:49:18Z</time>
      </trkpt>
      <trkpt lat="44.97705" lon="6.40963">
        <ele>2348</ele>
        <time>2021-08-07T16:49:32Z</time>
      </trkpt>
      <trkpt lat="44.9761" lon="6.40949">
        <ele>2349</ele>
        <time>2021-08-07T16:50:49Z</time>
      </trkpt>
      <trkpt lat="44.97527" lon="6.40969">
        <ele>2364</ele>
        <time>2021-08-07T16:51:56Z</time>
      </trkpt>
      <trkpt lat="44.97471" lon="6.41245">
        <ele>2395</ele>
        <time>2021-08-07T16:54:39Z</time>
      </trkpt>
      <trkpt lat="44.97438" lon="6.41496">
        <ele>2424</ele>
        <time>2021-08-07T16:57:04Z</time>
      </trkpt>
      <trkpt lat="44.974" lon="6.41548">
        <ele>2435</ele>
        <time>2021-08-07T16:57:46Z</time>
      </trkpt>
      <trkpt lat="44.97349" lon="6.41606">
        <ele>2447</ele>
        <time>2021-08-07T16:58:38Z</time>
      </trkpt>
      <trkpt lat="44.97316" lon="6.41517">
        <ele>2459</ele>
        <time>2021-08-07T16:59:35Z</time>
      </trkpt>
      <trkpt lat="44.97289" lon="6.41474">
        <ele>2459</ele>
        <time>2021-08-07T17:00:08Z</time>
      </trkpt>
      <trkpt lat="44.97217" lon="6.41488">
        <ele>2458</ele>
        <time>2021-08-07T17:01:06Z</time>
      </trkpt>
      <trkpt lat="44.97203" lon="6.41456">
        <ele>2457</ele>
        <time>2021-08-07T17:01:27Z</time>
      </trkpt>
      <trkpt lat="44.9717" lon="6.41465">
        <ele>2456</ele>
        <time>2021-08-07T17:01:54Z</time>
      </trkpt>
      <trkpt lat="44.97069" lon="6.41322">
        <ele>2453</ele>
        <time>2021-08-07T17:03:49Z</time>
      </trkpt>
      <trkpt lat="44.96954" lon="6.4123">
        <ele>2470</ele>
        <time>2021-08-07T17:05:34Z</time>
      </trkpt>
      <trkpt lat="44.96864" lon="6.41297">
        <ele>2473</ele>
        <time>2021-08-07T17:06:56Z</time>
      </trkpt>
      <trkpt lat="44.96995" lon="6.4158">
        <ele>2480</ele>
        <time>2021-08-07T17:10:07Z</time>
      </trkpt>
      <trkpt lat="44.97159" lon="6.41719">
        <ele>2461</ele>
        <time>2021-08-07T17:12:41Z</time>
      </trkpt>
      <trkpt lat="44.97276" lon="6.41662">
        <ele>2458</ele>
        <time>2021-08-07T17:14:20Z</time>
      </trkpt>
      <trkpt lat="44.97349" lon="6.41607">
        <ele>2447</ele>
        <time>2021-08-07T17:15:26Z</time>
      </trkpt>
      <trkpt lat="44.97447" lon="6.41441">
        <ele>2418</ele>
        <time>2021-08-07T17:17:28Z</time>
      </trkpt>
      <trkpt lat="44.97473" lon="6.41333">
        <ele>2402</ele>
        <time>2021-08-07T17:18:33Z</time>
      </trkpt>
      <trkpt lat="44.97487" lon="6.41151">
        <ele>2386</ele>
        <time>2021-08-07T17:20:17Z</time>
      </trkpt>
      <trkpt lat="44.97522" lon="6.41001">
        <ele>2368</ele>
        <time>2021-08-07T17:21:46Z</time>
      </trkpt>
      <trkpt lat="44.97651" lon="6.40949">
        <ele>2347</ele>
        <time>2021-08-07T17:23:34Z</time>
      </trkpt>
      <trkpt lat="44.97715" lon="6.4094">
        <ele>2348</ele>
        <time>2021-08-07T17:24:25Z</time>
      </trkpt>
      <trkpt lat="44.97784" lon="6.40916">
        <ele>2354</ele>
        <time>2021-08-07T17:25:22Z</time>
      </trkpt>
      <trkpt lat="44.97759" lon="6.40792">
        <ele>2341</ele>
        <time>2021-08-07T17:26:35Z</time>
      </trkpt>
      <trkpt lat="44.97778" lon="6.40734">
        <ele>2334</ele>
        <time>2021-08-07T17:27:11Z</time>
      </trkpt>
      <trkpt lat="44.97759" lon="6.40712">
        <ele>2328</ele>
        <time>2021-08-07T17:27:31Z</time>
      </trkpt>
      <trkpt lat="44.97818" lon="6.40619">
        <ele>2306</ele>
        <time>2021-08-07T17:28:42Z</time>
      </trkpt>
      <trkpt lat="44.97988" lon="6.40505">
        <ele>2266</ele>
        <time>2021-08-07T17:31:12Z</time>
      </trkpt>
      <trkpt lat="44.98148" lon="6.40352">
        <ele>2247</ele>
        <time>2021-08-07T17:33:47Z</time>
      </trkpt>
      <trkpt lat="44.98217" lon="6.40296">
        <ele>2244</ele>
        <time>2021-08-07T17:34:51Z</time>
      </trkpt>
      <trkpt lat="44.98426" lon="6.4">
        <ele>2228</ele>
        <time>2021-08-07T17:38:47Z</time>
      </trkpt>
      <trkpt lat="44.98513" lon="6.39816">
        <ele>2219</ele>
        <time>2021-08-07T17:40:53Z</time>
      </trkpt>
      <trkpt lat="44.98579" lon="6.39735">
        <ele>2213</ele>
        <time>2021-08-07T17:42:03Z</time>
      </trkpt>
      <trkpt lat="44.98587" lon="6.39666">
        <ele>2206</ele>
        <time>2021-08-07T17:42:42Z</time>
      </trkpt>
      <trkpt lat="44.98631" lon="6.39623">
        <ele>2204</ele>
        <time>2021-08-07T17:43:25Z</time>
      </trkpt>
      <trkpt lat="44.98679" lon="6.39484">
        <ele>2197</ele>
        <time>2021-08-07T17:44:53Z</time>
      </trkpt>
      <trkpt lat="44.98802" lon="6.39357">
        <ele>2188</ele>
        <time>2021-08-07T17:46:55Z</time>
      </trkpt>
      <trkpt lat="44.9888" lon="6.39267">
        <ele>2182</ele>
        <time>2021-08-07T17:48:15Z</time>
      </trkpt>
      <trkpt lat="44.98936" lon="6.39203">
        <ele>2178</ele>
        <time>2021-08-07T17:49:13Z</time>
      </trkpt>
      <trkpt lat="44.98992" lon="6.39188">
        <ele>2177</ele>
        <time>2021-08-07T17:49:59Z</time>
      </trkpt>
      <trkpt lat="44.99077" lon="6.39046">
        <ele>2165</ele>
        <time>2021-08-07T17:51:44Z</time>
      </trkpt>
      <trkpt lat="44.99106" lon="6.38917">
        <ele>2158</ele>
        <time>2021-08-07T17:53:01Z</time>
      </trkpt>
      <trkpt lat="44.99233" lon="6.3881">
        <ele>2147</ele>
        <time>2021-08-07T17:54:59Z</time>
      </trkpt>
      <trkpt lat="44.99297" lon="6.38722">
        <ele>2139</ele>
        <time>2021-08-07T17:56:10Z</time>
      </trkpt>
      <trkpt lat="44.99385" lon="6.38664">
        <ele>2133</ele>
        <time>2021-08-07T17:57:28Z</time>
      </trkpt>
      <trkpt lat="44.99476" lon="6.38638">
        <ele>2122</ele>
        <time>2021-08-07T17:58:43Z</time>
      </trkpt>
      <trkpt lat="44.99462" lon="6.3861">
        <ele>2122</ele>
        <time>2021-08-07T17:59:02Z</time>
      </trkpt>
      <trkpt lat="44.99512" lon="6.38578">
        <ele>2110</ele>
        <time>2021-08-07T17:59:46Z</time>
      </trkpt>
      <trkpt lat="44.99512" lon="6.38531">
        <ele>2099</ele>
        <time>2021-08-07T18:00:13Z</time>
      </trkpt>
      <trkpt lat="44.99566" lon="6.38484">
        <ele>2081</ele>
        <time>2021-08-07T18:01:03Z</time>
      </trkpt>
      <trkpt lat="44.99623" lon="6.38402">
        <ele>2065</ele>
        <time>2021-08-07T18:02:08Z</time>
      </trkpt>
    </trkseg>
  </trk>
</gpx>